createdAt,value
2023-04-14T00:05:00.736Z,0
2023-04-14T00:15:01.908Z,0
2023-04-14T00:25:00.908Z,0
2023-04-14T00:35:00.652Z,0
2023-04-14T00:45:00.844Z,0
2023-04-14T00:55:00.823Z,0
2023-04-14T01:05:01.036Z,0
2023-04-14T01:15:00.971Z,0
2023-04-14T01:25:00.882Z,0
2023-04-14T01:35:01.039Z,0
2023-04-14T01:45:01.215Z,0
2023-04-14T01:55:00.676Z,0
2023-04-14T02:05:00.686Z,0
2023-04-14T02:15:02.403Z,0
2023-04-14T02:25:00.793Z,0
2023-04-14T02:35:01.388Z,0
2023-04-14T02:45:02.820Z,0
2023-04-14T02:55:00.591Z,0
2023-04-14T03:05:00.730Z,0
2023-04-14T03:15:00.708Z,0
2023-04-14T03:25:00.625Z,0
2023-04-14T03:35:01.215Z,0
2023-04-14T03:45:01.865Z,0
2023-04-14T03:55:00.600Z,0
2023-04-14T04:05:00.926Z,0
2023-04-14T04:15:01.078Z,0
2023-04-14T04:25:01.119Z,0
2023-04-14T04:35:00.730Z,0
2023-04-14T04:45:01.936Z,0
2023-04-14T04:55:01.149Z,0.0298
2023-04-14T05:05:00.936Z,0.0298
2023-04-14T05:15:01.919Z,0.0298
2023-04-14T05:25:00.967Z,0.0298
2023-04-14T05:35:01.072Z,0.0298
2023-04-14T05:45:01.052Z,0.0298
2023-04-14T05:55:00.943Z,0.2284
2023-04-14T06:05:01.624Z,0.2284
2023-04-14T06:15:01.733Z,0.2284
2023-04-14T06:25:00.984Z,0.2284
2023-04-14T06:35:01.012Z,0.2284
2023-04-14T06:45:00.982Z,0.2284
2023-04-14T06:55:01.268Z,0.7448
2023-04-14T07:05:01.347Z,0.7448
2023-04-14T07:15:01.812Z,0.7448
2023-04-14T07:25:01.271Z,0.7448
2023-04-14T07:35:01.910Z,0.7448
2023-04-14T07:45:01.973Z,0.7448
2023-04-14T07:55:01.477Z,1.708
2023-04-14T08:05:01.322Z,1.708
2023-04-14T08:15:01.645Z,1.708
2023-04-14T08:25:01.542Z,1.708
2023-04-14T08:35:39.472Z,1.708
2023-04-14T08:45:01.416Z,1.708
2023-04-14T08:55:01.556Z,2.7706
2023-04-14T09:05:02.153Z,2.7706
2023-04-14T09:15:01.838Z,2.7706
2023-04-14T09:25:01.291Z,2.7706
2023-04-14T09:35:01.528Z,2.7706
2023-04-14T09:45:01.387Z,2.7706
2023-04-14T09:55:01.407Z,4.0516
2023-04-14T10:05:01.477Z,4.0516
2023-04-14T10:15:02.171Z,4.0516
2023-04-14T10:25:01.392Z,4.0516
2023-04-14T10:35:01.702Z,4.0516
2023-04-14T10:45:01.498Z,4.0516
2023-04-14T10:55:01.564Z,4.8758
2023-04-14T11:05:01.588Z,4.8758
2023-04-14T11:15:01.264Z,4.8758
2023-04-14T11:25:01.293Z,4.8758
2023-04-14T11:35:01.518Z,4.8758
2023-04-14T11:45:01.675Z,4.8758
2023-04-14T11:55:01.790Z,4.8758
2023-04-14T12:05:02.006Z,4.8758
2023-04-14T12:15:01.696Z,4.8758
2023-04-14T12:25:02.315Z,4.8758
2023-04-14T12:35:01.671Z,4.8758
2023-04-14T12:45:02.449Z,4.8758
2023-04-14T12:55:01.839Z,4.4587
2023-04-14T13:05:01.695Z,4.4587
2023-04-14T13:15:01.803Z,4.4587
2023-04-14T13:25:01.484Z,4.4587
2023-04-14T13:35:01.980Z,4.4587
2023-04-14T13:45:01.660Z,4.4587
2023-04-14T13:55:01.541Z,3.2969
2023-04-14T14:05:01.870Z,3.2969
2023-04-14T14:15:01.721Z,3.2969
2023-04-14T14:25:17.880Z,3.2969
2023-04-14T14:35:01.851Z,3.2969
2023-04-14T14:45:01.632Z,3.2969
2023-04-14T14:55:01.479Z,2.135
2023-04-14T15:05:01.956Z,2.135
2023-04-14T15:15:01.918Z,2.135
2023-04-14T15:25:01.976Z,2.135
2023-04-14T15:35:01.688Z,2.135
2023-04-14T15:45:02.435Z,2.135
2023-04-14T15:55:01.704Z,1.0228
2023-04-14T16:05:01.538Z,1.0228
2023-04-14T16:15:01.714Z,1.0228
2023-04-14T16:25:01.644Z,1.0228
2023-04-14T16:35:01.989Z,1.0228
2023-04-14T16:45:01.845Z,1.0228
2023-04-14T16:55:01.780Z,0.3575
2023-04-14T17:05:01.808Z,0.3575
2023-04-14T17:15:01.956Z,0.3575
2023-04-14T17:25:01.781Z,0.3575
2023-04-14T17:35:01.846Z,0.3575
2023-04-14T17:45:02.229Z,0.3575
2023-04-14T17:55:01.836Z,0.0695
2023-04-14T18:05:02.237Z,0.0695
2023-04-14T18:15:01.736Z,0.0695
2023-04-14T18:25:01.832Z,0.0695
2023-04-14T18:35:01.946Z,0.0695
2023-04-14T18:45:02.841Z,0.0695
2023-04-14T18:55:01.798Z,0
2023-04-14T19:05:02.043Z,0
2023-04-14T19:15:01.893Z,0
2023-04-14T19:25:02.137Z,0
2023-04-14T19:35:02.037Z,0
2023-04-14T19:45:02.127Z,0
2023-04-14T19:55:02.268Z,0
2023-04-14T20:05:02.309Z,0
2023-04-14T20:15:02.431Z,0
2023-04-14T20:25:01.860Z,0
2023-04-14T20:35:02.096Z,0
2023-04-14T20:45:02.058Z,0
2023-04-14T20:55:01.919Z,0
2023-04-14T21:05:01.914Z,0
2023-04-14T21:15:40.689Z,0
2023-04-14T21:25:02.428Z,0
2023-04-14T21:35:02.000Z,0
2023-04-14T21:45:01.997Z,0
2023-04-14T21:55:01.966Z,0
2023-04-14T22:05:02.346Z,0
2023-04-14T22:15:02.068Z,0
2023-04-14T22:25:01.996Z,0
2023-04-14T22:35:01.980Z,0
2023-04-14T22:45:02.136Z,0
2023-04-14T22:55:02.231Z,0
2023-04-14T23:05:08.556Z,0
2023-04-14T23:15:07.305Z,0
2023-04-14T23:25:06.042Z,0
2023-04-14T23:35:09.469Z,0
2023-04-14T23:45:05.956Z,0
2023-04-14T23:55:06.405Z,0
